RKPK/PUS METAR and TAF weather

Enter ICAO airport designator
Station Type Date Time Source
RKPK METAR 2021/09/27 06:00 UTC NOAA

RKPK 270600Z 07012KT 9999 SCT030 BKN150 26/15 Q1015


Station Type Date Time Source
RKPK Decoded METAR 2021/09/27 06:00 UTC NOAA

Pusan / Kimhae International Airport, Korea, South (RKPK) 35-11N 128-56E 6M
Sep 27, 2021 - 02:00 AM EDT / 2021.09.27 0600 UTC
Wind: from the ENE (070 degrees) at 14 MPH (12 KT):0
Visibility: greater than 7 mile(s):0
Sky conditions: mostly cloudy
Temperature: 78 F (26 C)
Dew Point: 59 F (15 C)
Relative Humidity: 50%
Pressure (altimeter): 29.97 in. Hg (1015 hPa)
ob: RKPK 270600Z 07012KT 9999 SCT030 BKN150 26/15 Q1015
cycle: 6

Station Type Date Time Source
RKPK TAF 2021/09/27 06:06 UTC NOAA

TAF RKPK 270500Z 2706/2812 06006KT 9999 SCT030 BKN150 TN19/2721Z TX25/2806Z

Example: see airport list